createdAt,value
2018-09-03T00:00:29.578Z,99785.48
2018-09-03T00:03:00.393Z,99782.05
2018-09-03T00:05:30.889Z,99785.63
2018-09-03T00:08:01.863Z,99787.56
2018-09-03T00:10:32.425Z,99776.93
2018-09-03T00:13:03.120Z,99777.30
2018-09-03T00:15:33.913Z,99775.43
2018-09-03T00:18:04.616Z,99780.72
2018-09-03T00:20:35.065Z,99779.29
2018-09-03T00:23:06.037Z,99776.36
2018-09-03T00:25:36.636Z,99777.05
2018-09-03T00:28:07.497Z,99775.84
2018-09-03T00:30:38.170Z,99770.27
2018-09-03T00:33:13.921Z,99767.34
2018-09-03T00:35:49.437Z,99762.98
2018-09-03T00:38:24.993Z,99760.19
2018-09-03T00:41:00.645Z,99758.77
2018-09-03T00:43:36.585Z,99760.88
2018-09-03T00:46:12.224Z,99755.91
2018-09-03T00:48:42.933Z,99754.53
2018-09-03T00:51:13.541Z,99754.70
2018-09-03T00:53:44.383Z,99746.64
2018-09-03T00:56:15.339Z,99754.77
2018-09-03T00:58:46.066Z,99760.48
2018-09-03T01:01:16.770Z,99759.73
2018-09-03T01:03:47.494Z,99757.04
2018-09-03T01:06:18.118Z,99753.31
2018-09-03T01:08:49.172Z,99749.53
2018-09-03T01:11:19.809Z,99753.98
2018-09-03T01:13:50.644Z,99755.23
2018-09-03T01:16:21.457Z,99751.33
2018-09-03T01:18:55.317Z,99754.99
2018-09-03T01:21:26.717Z,99753.26
2018-09-03T01:23:57.446Z,99745.08
2018-09-03T01:26:28.149Z,99750.62
2018-09-03T01:28:59.021Z,99754.31
2018-09-03T01:31:29.661Z,99755.52
2018-09-03T01:34:00.464Z,99750.61
2018-09-03T01:36:31.076Z,99747.58
2018-09-03T01:39:01.660Z,99744.25
2018-09-03T01:41:32.063Z,99750.81
2018-09-03T01:44:02.817Z,99749.69
2018-09-03T01:46:33.257Z,99748.50
2018-09-03T01:49:04.144Z,99748.58
2018-09-03T01:51:34.736Z,99738.70
2018-09-03T01:54:05.655Z,99748.21
2018-09-03T01:56:36.209Z,99742.70
2018-09-03T01:59:06.896Z,99746.89
2018-09-03T02:01:37.541Z,99747.20
2018-09-03T02:04:08.446Z,99744.99
2018-09-03T02:06:38.901Z,99749.27
2018-09-03T02:09:14.145Z,99743.48
2018-09-03T02:11:44.605Z,99747.53
2018-09-03T02:14:15.216Z,99748.42
2018-09-03T02:16:45.776Z,99742.30
2018-09-03T02:19:16.528Z,99744.39
2018-09-03T02:21:47.032Z,99733.86
2018-09-03T02:24:17.989Z,99733.69
2018-09-03T02:26:48.748Z,99737.63
2018-09-03T02:29:19.557Z,99732.91
2018-09-03T02:31:50.008Z,99732.09
2018-09-03T02:34:20.868Z,99735.84
2018-09-03T02:36:51.606Z,99727.07
2018-09-03T02:39:22.561Z,99726.05
2018-09-03T02:41:53.261Z,99719.28
2018-09-03T02:44:23.932Z,99717.42
2018-09-03T02:46:54.528Z,99716.44
2018-09-03T02:49:24.992Z,99712.20
2018-09-03T02:51:55.528Z,99707.52
2018-09-03T02:54:26.510Z,99720.69
2018-09-03T02:56:57.159Z,99717.48
2018-09-03T02:59:28.072Z,99717.33
2018-09-03T03:01:58.906Z,99718.00
2018-09-03T03:04:29.689Z,99717.84
2018-09-03T03:07:00.310Z,99714.88
2018-09-03T03:09:30.908Z,99718.09
2018-09-03T03:12:01.455Z,99718.11
2018-09-03T03:14:32.008Z,99716.48
2018-09-03T03:17:02.777Z,99717.19
2018-09-03T03:19:33.508Z,99716.16
2018-09-03T03:22:04.248Z,99708.38
2018-09-03T03:24:35.424Z,99710.63
2018-09-03T03:27:06.204Z,99711.27
2018-09-03T03:29:36.829Z,99712.36
2018-09-03T03:32:07.577Z,99713.37
2018-09-03T03:34:38.393Z,99719.38
2018-09-03T03:37:09.465Z,99714.81
2018-09-03T03:39:40.405Z,99719.33
2018-09-03T03:42:10.893Z,99725.06
2018-09-03T03:44:41.741Z,99721.73
2018-09-03T03:47:12.491Z,99724.40
2018-09-03T03:49:43.321Z,99726.42
2018-09-03T03:52:13.952Z,99726.69
2018-09-03T03:54:44.633Z,99727.13
2018-09-03T03:57:15.013Z,99726.36
2018-09-03T03:59:46.090Z,99726.14
2018-09-03T04:02:16.738Z,99728.13
2018-09-03T04:04:47.509Z,99720.58
2018-09-03T04:07:18.161Z,99723.02
2018-09-03T04:09:48.910Z,99726.68
2018-09-03T04:12:19.613Z,99727.78
2018-09-03T04:14:53.740Z,99730.62
2018-09-03T04:17:24.952Z,99728.28
2018-09-03T04:20:03.195Z,99726.41
2018-09-03T04:22:34.636Z,99741.63
2018-09-03T04:25:05.541Z,99737.43
2018-09-03T04:27:36.028Z,99739.09
2018-09-03T04:30:09.979Z,99738.95
2018-09-03T04:32:40.639Z,99736.32
2018-09-03T04:35:11.328Z,99736.03
2018-09-03T04:37:41.953Z,99734.17
2018-09-03T04:40:12.813Z,99735.53
2018-09-03T04:42:44.041Z,99725.73
2018-09-03T04:45:18.074Z,99726.61
2018-09-03T04:47:49.302Z,99719.59
2018-09-03T04:50:30.340Z,99720.64
2018-09-03T04:53:01.529Z,99725.58
2018-09-03T04:55:32.521Z,99720.03
2018-09-03T04:58:08.866Z,99716.93
2018-09-03T05:00:40.110Z,99717.75
2018-09-03T05:03:11.368Z,99715.78
2018-09-03T05:05:42.172Z,99708.69
2018-09-03T05:08:12.777Z,99704.88
2018-09-03T05:10:43.554Z,99701.31
2018-09-03T05:13:14.584Z,99700.50
2018-09-03T05:15:46.330Z,99696.80
2018-09-03T05:18:16.953Z,99697.59
2018-09-03T05:20:47.809Z,99684.02
2018-09-03T05:23:18.569Z,99686.90
2018-09-03T05:25:49.366Z,99687.19
2018-09-03T05:28:19.945Z,99689.14
2018-09-03T05:30:50.693Z,99685.88
2018-09-03T05:33:21.521Z,99675.64
2018-09-03T05:35:52.277Z,99681.47
2018-09-03T05:38:22.749Z,99681.20
2018-09-03T05:40:53.585Z,99674.95
2018-09-03T05:43:24.406Z,99678.31
2018-09-03T05:45:55.305Z,99683.52
2018-09-03T05:48:25.930Z,99684.36
2018-09-03T05:50:56.825Z,99676.47
2018-09-03T05:53:27.464Z,99683.34
2018-09-03T05:55:58.461Z,99675.41
2018-09-03T05:58:29.133Z,99679.69
2018-09-03T06:01:00.248Z,99676.17
2018-09-03T06:03:30.925Z,99679.46
2018-09-03T06:06:01.764Z,99668.78
2018-09-03T06:08:32.477Z,99670.29
2018-09-03T06:11:03.383Z,99666.88
2018-09-03T06:13:34.080Z,99665.22
2018-09-03T06:16:04.945Z,99654.64
2018-09-03T06:18:35.572Z,99653.23
2018-09-03T06:21:06.336Z,99650.47
2018-09-03T06:23:37.070Z,99647.55
2018-09-03T06:26:08.266Z,99648.55
2018-09-03T06:28:38.761Z,99646.78
2018-09-03T06:31:09.528Z,99644.23
2018-09-03T06:33:39.988Z,99646.33
2018-09-03T06:36:10.965Z,99644.95
2018-09-03T06:38:41.649Z,99646.14
2018-09-03T06:41:12.256Z,99650.34
2018-09-03T06:43:43.001Z,99651.95
2018-09-03T06:46:13.844Z,99653.28
2018-09-03T06:48:44.388Z,99658.18
2018-09-03T06:51:15.321Z,99657.64
2018-09-03T06:53:46.209Z,99654.78
2018-09-03T06:56:16.877Z,99661.55
2018-09-03T06:58:47.536Z,99662.64
2018-09-03T07:01:18.336Z,99661.52
2018-09-03T07:03:49.011Z,99667.64
2018-09-03T07:06:19.901Z,99666.75
2018-09-03T07:08:50.527Z,99668.63
2018-09-03T07:11:21.237Z,99664.98
2018-09-03T07:13:51.930Z,99662.86
2018-09-03T07:16:22.652Z,99664.14
2018-09-03T07:18:53.410Z,99664.34
2018-09-03T07:21:24.302Z,99668.31
2018-09-03T07:23:54.929Z,99667.58
2018-09-03T07:26:25.920Z,99669.56
2018-09-03T07:28:56.549Z,99668.05
2018-09-03T07:31:27.572Z,99669.19
2018-09-03T07:33:58.225Z,99659.01
2018-09-03T07:36:28.985Z,99655.55
2018-09-03T07:38:59.688Z,99658.73
2018-09-03T07:41:30.690Z,99659.24
2018-09-03T07:44:01.329Z,99652.95
2018-09-03T07:46:32.064Z,99651.92
2018-09-03T07:49:02.742Z,99648.42
2018-09-03T07:51:33.589Z,99644.69
2018-09-03T07:54:04.271Z,99642.52
2018-09-03T07:56:34.988Z,99633.37
2018-09-03T07:59:05.452Z,99634.54
2018-09-03T08:01:36.501Z,99627.39
2018-09-03T08:04:07.164Z,99625.30
2018-09-03T08:06:37.981Z,99615.38
2018-09-03T08:09:11.124Z,99613.19
2018-09-03T08:11:41.661Z,99610.89
2018-09-03T08:14:12.361Z,99612.83
2018-09-03T08:16:43.081Z,99608.22
2018-09-03T08:19:13.629Z,99603.16
2018-09-03T08:21:44.358Z,99601.11
2018-09-03T08:24:14.917Z,99601.52
2018-09-03T08:26:45.940Z,99600.38
2018-09-03T08:29:16.642Z,99600.55
2018-09-03T08:31:47.357Z,99601.90
2018-09-03T08:34:18.020Z,99601.81
2018-09-03T08:36:48.907Z,99597.44
2018-09-03T08:39:19.433Z,99596.33
2018-09-03T08:41:50.265Z,99595.23
2018-09-03T08:44:20.824Z,99591.32
2018-09-03T08:46:51.692Z,99594.25
2018-09-03T08:49:22.334Z,99596.53
2018-09-03T08:51:53.042Z,99591.11
2018-09-03T08:54:23.629Z,99585.97
2018-09-03T08:56:54.416Z,99584.28
2018-09-03T08:59:25.226Z,99570.11
2018-09-03T09:01:55.945Z,99567.83
2018-09-03T09:04:26.610Z,99561.80
2018-09-03T09:06:57.404Z,99565.92
2018-09-03T09:09:28.044Z,99561.77
2018-09-03T09:11:59.206Z,99558.64
2018-09-03T09:14:29.728Z,99552.37
2018-09-03T09:17:00.445Z,99548.95
2018-09-03T09:19:31.268Z,99534.91
2018-09-03T09:22:01.921Z,99538.98
2018-09-03T09:24:32.658Z,99530.88
2018-09-03T09:27:03.474Z,99516.55
2018-09-03T09:29:34.058Z,99521.75
2018-09-03T09:32:05.818Z,99510.98
2018-09-03T09:34:36.373Z,99507.91
2018-09-03T09:37:07.149Z,99500.58
2018-09-03T09:39:37.679Z,99492.13
2018-09-03T09:42:08.368Z,99488.98
2018-09-03T09:44:39.027Z,99492.25
2018-09-03T09:47:09.892Z,99493.59
2018-09-03T09:49:42.461Z,99491.61
2018-09-03T09:52:13.172Z,99483.48
2018-09-03T09:54:43.852Z,99483.51
2018-09-03T09:57:14.898Z,99479.41
2018-09-03T09:59:45.477Z,99478.05
2018-09-03T10:02:16.085Z,99484.00
2018-09-03T10:04:46.773Z,99470.45
2018-09-03T10:07:17.589Z,99474.09
2018-09-03T10:09:48.302Z,99460.63
2018-09-03T10:12:23.217Z,99465.44
2018-09-03T10:14:53.921Z,99462.03
2018-09-03T10:17:24.665Z,99456.78
2018-09-03T10:19:55.499Z,99453.92
2018-09-03T10:22:26.556Z,99445.27
2018-09-03T10:24:57.093Z,99436.63
2018-09-03T10:27:27.954Z,99428.11
2018-09-03T10:29:58.758Z,99434.36
2018-09-03T10:32:31.121Z,99427.24
2018-09-03T10:35:01.944Z,99430.39
2018-09-03T10:37:33.186Z,99421.91
2018-09-03T10:40:03.967Z,99421.43
2018-09-03T10:42:35.013Z,99415.69
2018-09-03T10:45:05.943Z,99406.75
2018-09-03T10:47:36.829Z,99402.34
2018-09-03T10:50:07.799Z,99397.84
2018-09-03T10:52:38.647Z,99386.61
2018-09-03T10:55:09.379Z,99388.67
2018-09-03T10:57:40.185Z,99384.27
2018-09-03T11:00:10.854Z,99385.27
2018-09-03T11:02:41.666Z,99389.27
2018-09-03T11:05:12.374Z,99388.23
2018-09-03T11:07:43.180Z,99380.77
2018-09-03T11:12:36.362Z,99380.77
2018-09-03T11:15:07.907Z,99372.58
2018-09-03T11:17:38.584Z,99369.83
2018-09-03T11:20:13.485Z,99357.81
2018-09-03T11:22:44.100Z,99359.91
2018-09-03T11:25:14.946Z,99351.89
2018-09-03T11:27:45.630Z,99349.30
2018-09-03T11:30:16.487Z,99348.91
2018-09-03T11:32:52.098Z,99350.25
2018-09-03T11:35:23.617Z,99346.73
2018-09-03T11:37:54.606Z,99326.98
2018-09-03T11:40:26.191Z,99328.38
2018-09-03T11:42:57.049Z,99323.14
2018-09-03T11:45:28.001Z,99321.44
2018-09-03T11:47:58.569Z,99316.22
2018-09-03T11:50:29.501Z,99321.02
2018-09-03T11:53:00.329Z,99312.75
2018-09-03T11:55:31.222Z,99312.73
2018-09-03T11:58:02.278Z,99311.11
2018-09-03T12:00:33.177Z,99310.98
2018-09-03T12:03:03.969Z,99305.97
2018-09-03T12:05:34.759Z,99299.70
2018-09-03T12:08:05.583Z,99304.27
2018-09-03T12:10:36.572Z,99297.48
2018-09-03T12:13:07.218Z,99291.63
2018-09-03T12:15:41.347Z,99286.42
2018-09-03T12:18:12.001Z,99286.89
2018-09-03T12:20:43.007Z,99280.90
2018-09-03T12:23:13.642Z,99278.94
2018-09-03T12:25:44.493Z,99273.92
2018-09-03T12:28:15.029Z,99272.68
2018-09-03T12:30:45.828Z,99269.09
2018-09-03T12:33:16.509Z,99265.51
2018-09-03T12:35:47.536Z,99262.20
2018-09-03T12:38:18.119Z,99262.45
2018-09-03T12:40:49.045Z,99256.53
2018-09-03T12:43:19.585Z,99251.44
2018-09-03T12:45:55.234Z,99252.36
2018-09-03T12:48:25.774Z,99251.45
2018-09-03T12:50:56.754Z,99253.41
2018-09-03T12:53:27.360Z,99247.31
2018-09-03T12:55:58.082Z,99241.82
2018-09-03T12:58:28.759Z,99248.83
2018-09-03T13:00:59.612Z,99243.58
2018-09-03T13:03:30.296Z,99241.09
2018-09-03T13:06:00.986Z,99241.95
2018-09-03T13:08:31.610Z,99241.77
2018-09-03T13:11:02.588Z,99233.91
2018-09-03T13:13:33.373Z,99233.80
2018-09-03T13:16:04.258Z,99233.64
2018-09-03T13:18:34.816Z,99231.41
2018-09-03T13:21:05.959Z,99228.08
2018-09-03T13:23:36.734Z,99228.30
2018-09-03T13:26:07.809Z,99221.92
2018-09-03T13:28:38.469Z,99219.46
2018-09-03T13:31:09.555Z,99211.19
2018-09-03T13:33:40.248Z,99213.30
2018-09-03T13:36:11.339Z,99208.95
2018-09-03T13:38:41.797Z,99203.64
2018-09-03T13:41:12.473Z,99202.28
2018-09-03T13:43:43.063Z,99194.14
2018-09-03T13:46:13.966Z,99185.02
2018-09-03T13:48:44.453Z,99183.23
2018-09-03T13:51:15.386Z,99174.57
2018-09-03T13:53:45.977Z,99169.78
2018-09-03T13:56:16.756Z,99167.59
2018-09-03T13:58:47.457Z,99173.02
2018-09-03T14:01:18.209Z,99170.98
2018-09-03T14:03:48.967Z,99167.02
2018-09-03T14:06:19.862Z,99166.38
2018-09-03T14:08:51.169Z,99162.22
2018-09-03T14:11:21.999Z,99157.75
2018-09-03T14:13:52.762Z,99157.13
2018-09-03T14:16:23.770Z,99160.81
2018-09-03T14:18:54.249Z,99156.96
2018-09-03T14:21:25.109Z,99157.00
2018-09-03T14:23:55.636Z,99163.20
2018-09-03T14:26:26.521Z,99152.99
2018-09-03T14:28:56.986Z,99161.11
2018-09-03T14:31:28.277Z,99157.34
2018-09-03T14:33:58.755Z,99154.98
2018-09-03T14:36:30.072Z,99151.41
2018-09-03T14:39:00.818Z,99151.30
2018-09-03T14:41:31.437Z,99159.89
2018-09-03T14:44:01.977Z,99155.11
2018-09-03T14:46:32.870Z,99155.30
2018-09-03T14:49:03.274Z,99152.53
2018-09-03T14:51:33.929Z,99153.11
2018-09-03T14:54:04.494Z,99152.51
2018-09-03T14:56:35.390Z,99158.45
2018-09-03T14:59:05.844Z,99149.13
2018-09-03T15:01:36.881Z,99151.05
2018-09-03T15:04:07.636Z,99146.80
2018-09-03T15:06:38.366Z,99146.06
2018-09-03T15:09:10.924Z,99147.05
2018-09-03T15:11:41.670Z,99141.78
2018-09-03T15:14:12.330Z,99143.29
2018-09-03T15:16:43.115Z,99143.92
2018-09-03T15:19:13.784Z,99137.36
2018-09-03T15:21:44.537Z,99141.24
2018-09-03T15:24:14.973Z,99139.03
2018-09-03T15:26:45.823Z,99151.70
2018-09-03T15:29:16.326Z,99148.78
2018-09-03T15:31:47.935Z,99147.94
2018-09-03T15:34:19.650Z,99145.46
2018-09-03T15:36:50.773Z,99147.03
2018-09-03T15:39:22.420Z,99140.21
2018-09-03T15:41:54.166Z,99143.62
2018-09-03T15:44:25.022Z,99136.11
2018-09-03T15:46:56.329Z,99142.88
2018-09-03T15:49:27.863Z,99128.80
2018-09-03T15:51:58.952Z,99134.23
2018-09-03T15:54:30.201Z,99133.98
2018-09-03T15:57:02.137Z,99129.14
2018-09-03T15:59:32.927Z,99136.17
2018-09-03T16:08:54.117Z,99132.03
2018-09-03T16:11:25.889Z,99125.37
2018-09-03T16:13:56.900Z,99128.39
2018-09-03T16:16:27.925Z,99130.86
2018-09-03T16:19:00.672Z,99131.45
2018-09-03T16:21:31.293Z,99133.98
2018-09-03T16:24:01.925Z,99136.28
2018-09-03T16:26:32.369Z,99138.45
2018-09-03T16:29:03.282Z,99146.78
2018-09-03T16:31:33.885Z,99142.56
2018-09-03T16:34:04.646Z,99146.89
2018-09-03T16:36:35.286Z,99150.67
2018-09-03T16:39:06.624Z,99149.39
2018-09-03T16:41:37.639Z,99153.41
2018-09-03T16:44:08.571Z,99157.00
2018-09-03T16:46:39.340Z,99157.56
2018-09-03T16:49:10.498Z,99163.23
2018-09-03T16:51:41.274Z,99159.38
2018-09-03T16:54:12.217Z,99177.66
2018-09-03T16:56:42.825Z,99183.17
2018-09-03T16:59:15.314Z,99190.72
2018-09-03T17:01:46.039Z,99184.63
2018-09-03T17:04:17.175Z,99185.55
2018-09-03T17:06:48.136Z,99201.70
2018-09-03T17:09:18.993Z,99204.64
2018-09-03T17:11:49.880Z,99208.98
2018-09-03T17:14:20.811Z,99208.63
2018-09-03T17:16:51.521Z,99207.39
2018-09-03T17:19:22.486Z,99205.72
2018-09-03T17:21:53.567Z,99206.65
2018-09-03T17:24:24.490Z,99216.37
2018-09-03T17:26:55.385Z,99218.54
2018-09-03T17:29:26.172Z,99223.56
2018-09-03T17:31:56.921Z,99225.55
2018-09-03T17:34:28.872Z,99222.19
2018-09-03T17:36:59.681Z,99222.25
2018-09-03T17:39:30.739Z,99219.50
2018-09-03T17:42:02.432Z,99212.69
2018-09-03T17:44:33.391Z,99219.22
2018-09-03T17:47:04.254Z,99224.84
2018-09-03T17:49:36.043Z,99212.42
2018-09-03T17:52:07.062Z,99226.77
2018-09-03T17:54:38.200Z,99227.19
2018-09-03T17:57:09.223Z,99234.09
2018-09-03T17:59:40.168Z,99231.52
2018-09-03T18:02:11.050Z,99233.00
2018-09-03T18:04:42.045Z,99242.70
2018-09-03T18:07:12.781Z,99237.78
2018-09-03T18:09:43.814Z,99231.77
2018-09-03T18:12:14.875Z,99236.09
2018-09-03T18:14:46.106Z,99234.59
2018-09-03T18:17:17.011Z,99237.70
2018-09-03T18:19:48.080Z,99237.36
2018-09-03T18:22:19.545Z,99238.73
2018-09-03T18:24:50.629Z,99240.53
2018-09-03T18:27:21.327Z,99243.91
2018-09-03T18:29:52.413Z,99246.75
2018-09-03T18:32:23.124Z,99250.67
2018-09-03T18:34:54.022Z,99253.53
2018-09-03T18:37:25.170Z,99244.19
2018-09-03T18:39:56.436Z,99245.38
2018-09-03T18:42:27.254Z,99255.46
2018-09-03T18:44:58.638Z,99255.44
2018-09-03T18:47:29.400Z,99254.19
2018-09-03T18:50:00.341Z,99257.92
2018-09-03T18:52:31.212Z,99265.31
2018-09-03T18:55:02.117Z,99257.64
2018-09-03T18:57:33.182Z,99261.50
2018-09-03T19:00:04.745Z,99264.95
2018-09-03T19:02:35.579Z,99266.61
2018-09-03T19:05:06.937Z,99267.02
2018-09-03T19:07:37.916Z,99272.22
2018-09-03T19:10:09.036Z,99280.80
2018-09-03T19:12:39.874Z,99277.50
2018-09-03T19:15:11.059Z,99280.25
2018-09-03T19:17:41.754Z,99279.80
2018-09-03T19:20:12.406Z,99281.44
2018-09-03T19:22:43.369Z,99273.33
2018-09-03T19:25:14.221Z,99277.51
2018-09-03T19:27:44.779Z,99276.91
2018-09-03T19:30:15.501Z,99273.28
2018-09-03T19:32:46.059Z,99277.61
2018-09-03T19:35:16.689Z,99292.05
2018-09-03T19:37:47.434Z,99293.40
2018-09-03T19:40:18.242Z,99303.12
2018-09-03T19:42:48.933Z,99304.91
2018-09-03T19:45:19.969Z,99303.37
2018-09-03T19:47:50.564Z,99303.23
2018-09-03T19:50:21.510Z,99310.34
2018-09-03T19:52:52.124Z,99313.52
2018-09-03T19:55:23.066Z,99313.69
2018-09-03T19:57:53.689Z,99312.72
2018-09-03T20:00:24.473Z,99308.80
2018-09-03T20:02:54.949Z,99309.97
2018-09-03T20:05:25.677Z,99302.83
2018-09-03T20:07:56.401Z,99302.55
2018-09-03T20:10:27.473Z,99299.95
2018-09-03T20:12:58.194Z,99308.10
2018-09-03T20:15:29.155Z,99304.30
2018-09-03T20:17:59.665Z,99304.22
2018-09-03T20:20:30.404Z,99297.88
2018-09-03T20:23:01.132Z,99292.81
2018-09-03T20:25:32.097Z,99304.73
2018-09-03T20:28:02.693Z,99308.14
2018-09-03T20:30:33.343Z,99303.99
2018-09-03T20:33:04.024Z,99311.22
2018-09-03T20:35:34.866Z,99298.83
2018-09-03T20:38:05.633Z,99300.52
2018-09-03T20:40:37.537Z,99301.98
2018-09-03T20:43:07.993Z,99303.48
2018-09-03T20:45:38.577Z,99295.40
2018-09-03T20:48:09.345Z,99300.95
2018-09-03T20:50:40.325Z,99297.27
2018-09-03T20:53:10.933Z,99300.67
2018-09-03T20:55:41.822Z,99294.96
2018-09-03T20:58:12.305Z,99294.57
2018-09-03T21:00:43.281Z,99294.94
2018-09-03T21:03:13.868Z,99290.22
2018-09-03T21:05:44.725Z,99288.77
2018-09-03T21:08:15.459Z,99289.39
2018-09-03T21:10:46.116Z,99283.00
2018-09-03T21:13:16.553Z,99281.44
2018-09-03T21:15:47.585Z,99276.13
2018-09-03T21:18:18.181Z,99274.38
2018-09-03T21:20:49.153Z,99282.75
2018-09-03T21:23:19.753Z,99279.20
2018-09-03T21:25:50.668Z,99283.67
2018-09-03T21:28:21.272Z,99284.85
2018-09-03T21:30:52.161Z,99285.44
2018-09-03T21:33:23.615Z,99290.39
2018-09-03T21:35:54.141Z,99291.33
2018-09-03T21:38:24.813Z,99291.55
2018-09-03T21:40:55.762Z,99295.59
2018-09-03T21:43:26.392Z,99291.32
2018-09-03T21:45:57.172Z,99298.46
2018-09-03T21:48:27.791Z,99294.42
2018-09-03T21:50:58.697Z,99286.88
2018-09-03T21:53:29.290Z,99291.03
2018-09-03T21:56:00.145Z,99285.44
2018-09-03T21:58:30.804Z,99288.39
2018-09-03T22:01:01.441Z,99282.92
2018-09-03T22:03:31.993Z,99280.84
2018-09-03T22:06:02.898Z,99274.56
2018-09-03T22:08:33.468Z,99274.33
2018-09-03T22:11:04.356Z,99271.80
2018-09-03T22:13:35.005Z,99270.45
2018-09-03T22:16:08.629Z,99266.38
2018-09-03T22:18:40.759Z,99268.22
2018-09-03T22:21:11.637Z,99281.19
2018-09-03T22:23:42.377Z,99271.45
2018-09-03T22:26:13.298Z,99266.50
2018-09-03T22:28:44.040Z,99265.81
2018-09-03T22:31:15.120Z,99261.73
2018-09-03T22:33:45.729Z,99250.57
2018-09-03T22:36:16.404Z,99251.80
2018-09-03T22:38:47.026Z,99261.84
2018-09-03T22:41:17.780Z,99259.13
2018-09-03T22:43:48.493Z,99247.17
2018-09-03T22:46:19.359Z,99248.79
2018-09-03T22:48:49.898Z,99251.33
2018-09-03T22:51:20.733Z,99250.89
2018-09-03T22:53:51.465Z,99242.56
2018-09-03T22:56:22.162Z,99239.17
2018-09-03T22:58:52.752Z,99237.80
2018-09-03T23:01:23.637Z,99233.85
2018-09-03T23:03:54.414Z,99231.66
2018-09-03T23:06:25.272Z,99223.01
2018-09-03T23:08:55.888Z,99233.41
2018-09-03T23:11:26.822Z,99235.88
2018-09-03T23:13:57.523Z,99233.08
2018-09-03T23:16:28.117Z,99232.75
2018-09-03T23:18:58.889Z,99231.73
2018-09-03T23:21:29.747Z,99236.05
2018-09-03T23:24:00.537Z,99233.61
2018-09-03T23:26:31.326Z,99231.85
2018-09-03T23:29:02.120Z,99231.65
2018-09-03T23:31:32.964Z,99227.75
2018-09-03T23:34:03.578Z,99223.67
2018-09-03T23:36:34.457Z,99214.83
2018-09-03T23:39:05.573Z,99217.14
2018-09-03T23:41:36.393Z,99213.92
2018-09-03T23:44:07.231Z,99215.70
2018-09-03T23:46:37.881Z,99211.77
2018-09-03T23:49:08.491Z,99214.56
2018-09-03T23:51:39.156Z,99213.59
2018-09-03T23:54:09.802Z,99215.58
2018-09-03T23:56:40.548Z,99225.09
2018-09-03T23:59:11.156Z,99216.61
